sensor_id;sensor_type;location;lat;lon;timestamp;pressure;altitude;pressure_sealevel;temperature;humidity
28683;BME280;15862;43.062;25.626;2022-12-07T00:00:42;100250.56;;;6.17;100.00
28683;BME280;15862;43.062;25.626;2022-12-07T00:03:07;100244.81;;;6.12;100.00
28683;BME280;15862;43.062;25.626;2022-12-07T00:05:33;100254.06;;;6.14;100.00
28683;BME280;15862;43.062;25.626;2022-12-07T00:07:58;100257.94;;;6.23;100.00
28683;BME280;15862;43.062;25.626;2022-12-07T00:10:24;100249.69;;;6.33;100.00
28683;BME280;15862;43.062;25.626;2022-12-07T00:12:49;100241.41;;;6.28;100.00
28683;BME280;15862;43.062;25.626;2022-12-07T00:15:15;100258.81;;;6.39;100.00
28683;BME280;15862;43.062;25.626;2022-12-07T00:17:40;100261.97;;;6.44;100.00
28683;BME280;15862;43.062;25.626;2022-12-07T00:20:06;100255.75;;;6.48;100.00
28683;BME280;15862;43.062;25.626;2022-12-07T00:22:32;100262.22;;;6.55;100.00
28683;BME280;15862;43.062;25.626;2022-12-07T00:24:57;100253.38;;;6.45;100.00
28683;BME280;15862;43.062;25.626;2022-12-07T00:27:23;100255.72;;;6.49;100.00
28683;BME280;15862;43.062;25.626;2022-12-07T00:29:48;100264.38;;;6.47;100.00
28683;BME280;15862;43.062;25.626;2022-12-07T00:32:13;100265.88;;;6.51;100.00
28683;BME280;15862;43.062;25.626;2022-12-07T00:34:39;100259.41;;;6.44;100.00
28683;BME280;15862;43.062;25.626;2022-12-07T00:37:04;100259.50;;;6.42;100.00
28683;BME280;15862;43.062;25.626;2022-12-07T00:39:30;100272.44;;;6.56;100.00
28683;BME280;15862;43.062;25.626;2022-12-07T00:41:55;100274.69;;;6.62;100.00
28683;BME280;15862;43.062;25.626;2022-12-07T00:44:20;100281.06;;;6.71;100.00
28683;BME280;15862;43.062;25.626;2022-12-07T00:46:46;100274.94;;;6.73;100.00
28683;BME280;15862;43.062;25.626;2022-12-07T00:49:11;100263.06;;;6.72;100.00
28683;BME280;15862;43.062;25.626;2022-12-07T00:51:37;100243.66;;;6.67;100.00
28683;BME280;15862;43.062;25.626;2022-12-07T00:54:02;100259.50;;;6.75;100.00
28683;BME280;15862;43.062;25.626;2022-12-07T00:56:29;100245.41;;;6.82;100.00
28683;BME280;15862;43.062;25.626;2022-12-07T00:58:56;100243.44;;;6.86;100.00
28683;BME280;15862;43.062;25.626;2022-12-07T01:01:24;100248.22;;;6.92;100.00
28683;BME280;15862;43.062;25.626;2022-12-07T01:03:50;100235.16;;;6.97;100.00
28683;BME280;15862;43.062;25.626;2022-12-07T01:06:17;100224.97;;;6.95;100.00
28683;BME280;15862;43.062;25.626;2022-12-07T01:08:43;100241.22;;;7.11;100.00
28683;BME280;15862;43.062;25.626;2022-12-07T01:11:12;100239.22;;;7.16;100.00
28683;BME280;15862;43.062;25.626;2022-12-07T01:13:38;100228.44;;;7.10;100.00
28683;BME280;15862;43.062;25.626;2022-12-07T01:16:05;100230.44;;;7.05;100.00
28683;BME280;15862;43.062;25.626;2022-12-07T01:18:33;100231.34;;;7.04;100.00
28683;BME280;15862;43.062;25.626;2022-12-07T01:23:24;100221.25;;;7.01;100.00
28683;BME280;15862;43.062;25.626;2022-12-07T01:26:04;100209.66;;;7.09;100.00
28683;BME280;15862;43.062;25.626;2022-12-07T01:28:29;100221.50;;;6.96;100.00
28683;BME280;15862;43.062;25.626;2022-12-07T01:31:01;100222.31;;;6.82;100.00
28683;BME280;15862;43.062;25.626;2022-12-07T01:33:29;100223.38;;;6.62;100.00
28683;BME280;15862;43.062;25.626;2022-12-07T01:36:00;100219.13;;;6.46;100.00
28683;BME280;15862;43.062;25.626;2022-12-07T01:38:25;100220.22;;;6.57;100.00
28683;BME280;15862;43.062;25.626;2022-12-07T01:40:55;100199.59;;;6.59;100.00
28683;BME280;15862;43.062;25.626;2022-12-07T01:43:22;100205.88;;;6.69;100.00
28683;BME280;15862;43.062;25.626;2022-12-07T01:45:49;100190.66;;;6.66;100.00
28683;BME280;15862;43.062;25.626;2022-12-07T01:48:16;100204.06;;;6.55;100.00
28683;BME280;15862;43.062;25.626;2022-12-07T01:50:44;100200.59;;;6.56;100.00
28683;BME280;15862;43.062;25.626;2022-12-07T01:53:12;100198.09;;;6.55;100.00
28683;BME280;15862;43.062;25.626;2022-12-07T01:55:42;100207.13;;;6.62;100.00
28683;BME280;15862;43.062;25.626;2022-12-07T01:58:10;100208.19;;;6.58;100.00
28683;BME280;15862;43.062;25.626;2022-12-07T02:00:36;100211.34;;;6.63;100.00
28683;BME280;15862;43.062;25.626;2022-12-07T02:03:16;100198.44;;;6.64;100.00
28683;BME280;15862;43.062;25.626;2022-12-07T02:05:45;100192.16;;;6.70;100.00
28683;BME280;15862;43.062;25.626;2022-12-07T02:08:12;100190.19;;;6.75;100.00
28683;BME280;15862;43.062;25.626;2022-12-07T02:10:38;100192.50;;;6.79;100.00
28683;BME280;15862;43.062;25.626;2022-12-07T02:13:13;100188.19;;;6.80;100.00
28683;BME280;15862;43.062;25.626;2022-12-07T02:15:59;100188.75;;;6.84;100.00
28683;BME280;15862;43.062;25.626;2022-12-07T02:29:38;100155.31;;;6.86;100.00
28683;BME280;15862;43.062;25.626;2022-12-07T02:32:11;100183.41;;;7.04;100.00
28683;BME280;15862;43.062;25.626;2022-12-07T02:39:59;100179.97;;;6.73;100.00
28683;BME280;15862;43.062;25.626;2022-12-07T02:42:34;100174.19;;;6.70;100.00
28683;BME280;15862;43.062;25.626;2022-12-07T02:45:02;100168.22;;;6.69;100.00
28683;BME280;15862;43.062;25.626;2022-12-07T02:47:29;100171.28;;;6.60;100.00
28683;BME280;15862;43.062;25.626;2022-12-07T02:49:56;100170.69;;;6.55;100.00
28683;BME280;15862;43.062;25.626;2022-12-07T02:52:22;100169.13;;;6.53;100.00
28683;BME280;15862;43.062;25.626;2022-12-07T02:54:48;100171.09;;;6.48;100.00
28683;BME280;15862;43.062;25.626;2022-12-07T03:00:07;100174.22;;;6.37;100.00
28683;BME280;15862;43.062;25.626;2022-12-07T03:03:00;100165.97;;;6.15;100.00
28683;BME280;15862;43.062;25.626;2022-12-07T03:11:00;100180.44;;;6.01;100.00
28683;BME280;15862;43.062;25.626;2022-12-07T03:16:38;100182.38;;;5.96;100.00
28683;BME280;15862;43.062;25.626;2022-12-07T03:19:13;100190.72;;;6.00;100.00
28683;BME280;15862;43.062;25.626;2022-12-07T03:21:47;100194.16;;;6.00;100.00
28683;BME280;15862;43.062;25.626;2022-12-07T03:24:18;100198.59;;;5.97;100.00
28683;BME280;15862;43.062;25.626;2022-12-07T03:26:48;100197.34;;;5.88;100.00
28683;BME280;15862;43.062;25.626;2022-12-07T03:29:21;100191.44;;;5.86;100.00
28683;BME280;15862;43.062;25.626;2022-12-07T03:31:55;100198.56;;;5.81;100.00
28683;BME280;15862;43.062;25.626;2022-12-07T03:34:29;100176.13;;;5.68;100.00
28683;BME280;15862;43.062;25.626;2022-12-07T03:37:12;100200.34;;;5.79;100.00
28683;BME280;15862;43.062;25.626;2022-12-07T03:39:51;100197.84;;;5.78;100.00
28683;BME280;15862;43.062;25.626;2022-12-07T03:42:22;100200.41;;;5.78;100.00
28683;BME280;15862;43.062;25.626;2022-12-07T03:44:48;100204.72;;;5.77;100.00
28683;BME280;15862;43.062;25.626;2022-12-07T03:47:29;100193.41;;;5.81;100.00
28683;BME280;15862;43.062;25.626;2022-12-07T03:50:00;100201.53;;;5.89;100.00
28683;BME280;15862;43.062;25.626;2022-12-07T03:52:37;100204.75;;;6.09;100.00
28683;BME280;15862;43.062;25.626;2022-12-07T03:55:15;100200.47;;;6.10;100.00
28683;BME280;15862;43.062;25.626;2022-12-07T03:57:44;100185.47;;;6.03;100.00
28683;BME280;15862;43.062;25.626;2022-12-07T04:00:12;100192.16;;;6.05;100.00
28683;BME280;15862;43.062;25.626;2022-12-07T04:02:39;100186.59;;;5.97;100.00
28683;BME280;15862;43.062;25.626;2022-12-07T04:05:05;100180.44;;;6.01;100.00
28683;BME280;15862;43.062;25.626;2022-12-07T04:07:31;100166.84;;;5.99;100.00
28683;BME280;15862;43.062;25.626;2022-12-07T04:09:56;100183.75;;;6.03;100.00
28683;BME280;15862;43.062;25.626;2022-12-07T04:12:23;100179.97;;;6.10;100.00
28683;BME280;15862;43.062;25.626;2022-12-07T04:14:48;100157.25;;;6.03;100.00
28683;BME280;15862;43.062;25.626;2022-12-07T04:17:14;100171.34;;;6.11;100.00
28683;BME280;15862;43.062;25.626;2022-12-07T04:19:40;100174.56;;;6.14;100.00
28683;BME280;15862;43.062;25.626;2022-12-07T04:22:05;100170.13;;;6.18;100.00
28683;BME280;15862;43.062;25.626;2022-12-07T04:24:32;100168.75;;;6.28;100.00
28683;BME280;15862;43.062;25.626;2022-12-07T04:26:57;100163.47;;;6.31;100.00
28683;BME280;15862;43.062;25.626;2022-12-07T04:29:23;100158.16;;;6.34;100.00
28683;BME280;15862;43.062;25.626;2022-12-07T04:31:49;100162.00;;;6.42;100.00
28683;BME280;15862;43.062;25.626;2022-12-07T04:34:15;100170.03;;;6.52;100.00
28683;BME280;15862;43.062;25.626;2022-12-07T04:36:42;100156.06;;;6.57;100.00
28683;BME280;15862;43.062;25.626;2022-12-07T04:39:09;100157.44;;;6.63;100.00
28683;BME280;15862;43.062;25.626;2022-12-07T04:41:38;100155.78;;;6.62;100.00
28683;BME280;15862;43.062;25.626;2022-12-07T04:44:04;100146.28;;;6.64;100.00
28683;BME280;15862;43.062;25.626;2022-12-07T04:46:33;100154.56;;;6.69;100.00
28683;BME280;15862;43.062;25.626;2022-12-07T04:48:59;100147.44;;;6.74;100.00
28683;BME280;15862;43.062;25.626;2022-12-07T04:51:27;100139.47;;;6.63;100.00
28683;BME280;15862;43.062;25.626;2022-12-07T04:53:54;100143.91;;;6.61;100.00
28683;BME280;15862;43.062;25.626;2022-12-07T04:56:20;100134.19;;;6.66;100.00
28683;BME280;15862;43.062;25.626;2022-12-07T04:58:47;100131.06;;;6.61;100.00
28683;BME280;15862;43.062;25.626;2022-12-07T05:01:13;100129.88;;;6.66;100.00
28683;BME280;15862;43.062;25.626;2022-12-07T05:03:39;100137.34;;;6.71;100.00
28683;BME280;15862;43.062;25.626;2022-12-07T05:06:06;100142.41;;;6.72;100.00
28683;BME280;15862;43.062;25.626;2022-12-07T05:08:32;100144.13;;;6.72;100.00
28683;BME280;15862;43.062;25.626;2022-12-07T05:10:58;100121.69;;;6.60;100.00
28683;BME280;15862;43.062;25.626;2022-12-07T05:13:23;100132.28;;;6.69;100.00
28683;BME280;15862;43.062;25.626;2022-12-07T05:15:49;100126.31;;;6.69;100.00
28683;BME280;15862;43.062;25.626;2022-12-07T05:18:15;100113.34;;;6.56;100.00
28683;BME280;15862;43.062;25.626;2022-12-07T05:20:42;100123.19;;;6.64;100.00
28683;BME280;15862;43.062;25.626;2022-12-07T05:23:07;100120.94;;;6.58;100.00
28683;BME280;15862;43.062;25.626;2022-12-07T05:25:33;100112.69;;;6.53;100.00
28683;BME280;15862;43.062;25.626;2022-12-07T05:27:58;100116.16;;;6.52;100.00
28683;BME280;15862;43.062;25.626;2022-12-07T05:30:25;100106.84;;;6.34;100.00
28683;BME280;15862;43.062;25.626;2022-12-07T05:32:51;100112.00;;;6.34;100.00
28683;BME280;15862;43.062;25.626;2022-12-07T05:35:17;100116.31;;;6.33;100.00
28683;BME280;15862;43.062;25.626;2022-12-07T05:37:43;100123.25;;;6.31;100.00
28683;BME280;15862;43.062;25.626;2022-12-07T05:40:09;100118.78;;;6.35;100.00
28683;BME280;15862;43.062;25.626;2022-12-07T05:42:35;100104.94;;;6.22;100.00
28683;BME280;15862;43.062;25.626;2022-12-07T05:45:00;100123.66;;;6.24;100.00
28683;BME280;15862;43.062;25.626;2022-12-07T05:47:26;100120.50;;;6.19;100.00
28683;BME280;15862;43.062;25.626;2022-12-07T05:49:51;100139.44;;;6.16;100.00
28683;BME280;15862;43.062;25.626;2022-12-07T05:52:17;100133.81;;;6.10;100.00
28683;BME280;15862;43.062;25.626;2022-12-07T05:54:42;100118.91;;;6.01;100.00
28683;BME280;15862;43.062;25.626;2022-12-07T05:57:08;100116.66;;;5.95;100.00
28683;BME280;15862;43.062;25.626;2022-12-07T05:59:33;100132.94;;;5.94;100.00
28683;BME280;15862;43.062;25.626;2022-12-07T06:02:01;100120.50;;;5.87;100.00
28683;BME280;15862;43.062;25.626;2022-12-07T06:04:32;100146.47;;;5.96;100.00
28683;BME280;15862;43.062;25.626;2022-12-07T06:06:57;100152.38;;;5.98;100.00
28683;BME280;15862;43.062;25.626;2022-12-07T06:09:25;100137.16;;;5.95;100.00
28683;BME280;15862;43.062;25.626;2022-12-07T06:11:51;100148.91;;;5.99;100.00
28683;BME280;15862;43.062;25.626;2022-12-07T06:14:35;100146.19;;;6.02;100.00
28683;BME280;15862;43.062;25.626;2022-12-07T06:17:01;100151.44;;;6.16;100.00
28683;BME280;15862;43.062;25.626;2022-12-07T06:19:26;100144.47;;;6.18;100.00
28683;BME280;15862;43.062;25.626;2022-12-07T06:21:52;100154.44;;;6.24;100.00
28683;BME280;15862;43.062;25.626;2022-12-07T06:24:18;100154.53;;;6.38;100.00
28683;BME280;15862;43.062;25.626;2022-12-07T06:26:44;100151.56;;;6.45;100.00
28683;BME280;15862;43.062;25.626;2022-12-07T06:29:09;100147.13;;;6.64;100.00
28683;BME280;15862;43.062;25.626;2022-12-07T06:31:35;100154.97;;;6.92;100.00
28683;BME280;15862;43.062;25.626;2022-12-07T06:34:04;100158.94;;;7.13;100.00
28683;BME280;15862;43.062;25.626;2022-12-07T06:36:30;100163.78;;;7.33;100.00
28683;BME280;15862;43.062;25.626;2022-12-07T06:38:56;100142.25;;;7.49;100.00
28683;BME280;15862;43.062;25.626;2022-12-07T06:41:21;100154.84;;;7.83;100.00
28683;BME280;15862;43.062;25.626;2022-12-07T06:43:47;100136.84;;;7.97;100.00
28683;BME280;15862;43.062;25.626;2022-12-07T06:46:14;100134.59;;;8.34;100.00
28683;BME280;15862;43.062;25.626;2022-12-07T06:48:40;100114.81;;;8.48;100.00
28683;BME280;15862;43.062;25.626;2022-12-07T06:51:05;100097.16;;;8.56;100.00
28683;BME280;15862;43.062;25.626;2022-12-07T06:53:31;100109.50;;;8.78;100.00
28683;BME280;15862;43.062;25.626;2022-12-07T06:55:56;100097.41;;;8.66;100.00
28683;BME280;15862;43.062;25.626;2022-12-07T06:58:22;100093.63;;;9.10;100.00
28683;BME280;15862;43.062;25.626;2022-12-07T07:00:48;100088.78;;;9.44;100.00
28683;BME280;15862;43.062;25.626;2022-12-07T07:03:15;100078.66;;;9.54;100.00
28683;BME280;15862;43.062;25.626;2022-12-07T07:05:42;100075.06;;;9.69;100.00
28683;BME280;15862;43.062;25.626;2022-12-07T07:08:07;100074.16;;;9.82;100.00
28683;BME280;15862;43.062;25.626;2022-12-07T07:10:33;100080.53;;;9.77;100.00
28683;BME280;15862;43.062;25.626;2022-12-07T07:12:58;100083.22;;;9.63;100.00
28683;BME280;15862;43.062;25.626;2022-12-07T07:15:24;100096.81;;;9.40;100.00
28683;BME280;15862;43.062;25.626;2022-12-07T07:17:49;100096.63;;;9.43;100.00
28683;BME280;15862;43.062;25.626;2022-12-07T07:20:15;100104.22;;;9.32;100.00
28683;BME280;15862;43.062;25.626;2022-12-07T07:22:40;100109.59;;;9.29;100.00
28683;BME280;15862;43.062;25.626;2022-12-07T07:25:06;100105.06;;;9.32;100.00
28683;BME280;15862;43.062;25.626;2022-12-07T07:27:31;100106.38;;;9.38;100.00
28683;BME280;15862;43.062;25.626;2022-12-07T07:29:57;100105.47;;;9.51;100.00
28683;BME280;15862;43.062;25.626;2022-12-07T07:32:22;100101.47;;;9.60;100.00
28683;BME280;15862;43.062;25.626;2022-12-07T07:34:48;100110.75;;;9.75;100.00
28683;BME280;15862;43.062;25.626;2022-12-07T07:37:14;100098.91;;;9.97;100.00
28683;BME280;15862;43.062;25.626;2022-12-07T07:39:39;100114.44;;;10.09;100.00
28683;BME280;15862;43.062;25.626;2022-12-07T07:42:06;100110.88;;;10.23;100.00
28683;BME280;15862;43.062;25.626;2022-12-07T07:44:33;100119.50;;;10.59;100.00
28683;BME280;15862;43.062;25.626;2022-12-07T07:46:58;100096.06;;;10.85;100.00
28683;BME280;15862;43.062;25.626;2022-12-07T07:49:24;100104.59;;;11.56;100.00
28683;BME280;15862;43.062;25.626;2022-12-07T07:51:49;100096.53;;;11.82;100.00
28683;BME280;15862;43.062;25.626;2022-12-07T07:54:15;100100.31;;;11.89;100.00
28683;BME280;15862;43.062;25.626;2022-12-07T07:56:40;100084.88;;;11.66;100.00
28683;BME280;15862;43.062;25.626;2022-12-07T07:59:05;100103.75;;;11.55;100.00
28683;BME280;15862;43.062;25.626;2022-12-07T08:01:31;100099.00;;;11.49;100.00
28683;BME280;15862;43.062;25.626;2022-12-07T08:03:56;100096.41;;;11.39;100.00
28683;BME280;15862;43.062;25.626;2022-12-07T08:06:22;100094.94;;;11.24;100.00
28683;BME280;15862;43.062;25.626;2022-12-07T08:08:47;100101.34;;;11.07;100.00
28683;BME280;15862;43.062;25.626;2022-12-07T08:11:13;100099.53;;;10.97;100.00
28683;BME280;15862;43.062;25.626;2022-12-07T08:13:38;100097.63;;;10.99;100.00
28683;BME280;15862;43.062;25.626;2022-12-07T08:16:07;100101.59;;;10.92;100.00
28683;BME280;15862;43.062;25.626;2022-12-07T08:18:37;100092.81;;;11.18;100.00
28683;BME280;15862;43.062;25.626;2022-12-07T08:21:05;100088.16;;;11.34;100.00
28683;BME280;15862;43.062;25.626;2022-12-07T08:23:32;100098.38;;;10.77;100.00
28683;BME280;15862;43.062;25.626;2022-12-07T08:26:02;100097.81;;;10.85;100.00
28683;BME280;15862;43.062;25.626;2022-12-07T08:28:28;100092.47;;;10.99;100.00
28683;BME280;15862;43.062;25.626;2022-12-07T08:31:02;100091.00;;;11.07;100.00
28683;BME280;15862;43.062;25.626;2022-12-07T08:33:28;100085.81;;;11.41;100.00
28683;BME280;15862;43.062;25.626;2022-12-07T08:35:54;100085.59;;;11.44;100.00
28683;BME280;15862;43.062;25.626;2022-12-07T08:38:19;100085.06;;;11.29;100.00
28683;BME280;15862;43.062;25.626;2022-12-07T08:40:52;100079.69;;;11.32;100.00
28683;BME280;15862;43.062;25.626;2022-12-07T08:43:18;100064.13;;;11.21;100.00
28683;BME280;15862;43.062;25.626;2022-12-07T08:45:43;100080.53;;;11.43;100.00
28683;BME280;15862;43.062;25.626;2022-12-07T08:48:11;100082.66;;;11.49;100.00
28683;BME280;15862;43.062;25.626;2022-12-07T08:50:39;100069.47;;;11.86;100.00
28683;BME280;15862;43.062;25.626;2022-12-07T08:53:06;100060.63;;;12.86;98.32
28683;BME280;15862;43.062;25.626;2022-12-07T08:55:33;100064.59;;;15.09;81.83
28683;BME280;15862;43.062;25.626;2022-12-07T08:57:59;100067.00;;;17.11;64.14
28683;BME280;15862;43.062;25.626;2022-12-07T09:00:26;100054.22;;;17.60;57.94
28683;BME280;15862;43.062;25.626;2022-12-07T09:02:53;100048.38;;;16.88;59.32
28683;BME280;15862;43.062;25.626;2022-12-07T09:05:19;100033.72;;;17.13;58.45
28683;BME280;15862;43.062;25.626;2022-12-07T09:07:46;100040.16;;;17.36;58.25
28683;BME280;15862;43.062;25.626;2022-12-07T09:10:14;100036.88;;;17.16;58.92
28683;BME280;15862;43.062;25.626;2022-12-07T09:12:39;100038.28;;;17.11;57.80
28683;BME280;15862;43.062;25.626;2022-12-07T09:15:05;100029.56;;;16.85;57.42
28683;BME280;15862;43.062;25.626;2022-12-07T09:17:34;100023.22;;;16.70;60.01
28683;BME280;15862;43.062;25.626;2022-12-07T09:20:01;100021.19;;;17.16;58.71
28683;BME280;15862;43.062;25.626;2022-12-07T09:22:30;100021.06;;;17.94;56.76
28683;BME280;15862;43.062;25.626;2022-12-07T09:24:58;100019.22;;;18.61;52.46
28683;BME280;15862;43.062;25.626;2022-12-07T09:27:24;100014.75;;;18.38;51.74
28683;BME280;15862;43.062;25.626;2022-12-07T09:29:50;99993.03;;;17.70;53.72
28683;BME280;15862;43.062;25.626;2022-12-07T09:32:15;99993.59;;;17.14;55.24
28683;BME280;15862;43.062;25.626;2022-12-07T09:34:41;100003.44;;;16.50;58.57
28683;BME280;15862;43.062;25.626;2022-12-07T09:37:06;99997.66;;;16.29;60.54
28683;BME280;15862;43.062;25.626;2022-12-07T09:39:32;99997.84;;;16.18;61.89
28683;BME280;15862;43.062;25.626;2022-12-07T09:41:59;99989.34;;;15.90;63.71
28683;BME280;15862;43.062;25.626;2022-12-07T09:44:27;99973.41;;;15.66;66.46
28683;BME280;15862;43.062;25.626;2022-12-07T09:46:54;99983.00;;;15.65;67.52
28683;BME280;15862;43.062;25.626;2022-12-07T09:49:21;99979.50;;;15.84;67.75
28683;BME280;15862;43.062;25.626;2022-12-07T09:52:24;99982.66;;;16.58;61.74
28683;BME280;15862;43.062;25.626;2022-12-07T09:54:48;99980.22;;;17.60;57.12
28683;BME280;15862;43.062;25.626;2022-12-07T09:57:15;99961.13;;;18.49;52.79
28683;BME280;15862;43.062;25.626;2022-12-07T09:59:40;99962.16;;;19.90;50.11
28683;BME280;15862;43.062;25.626;2022-12-07T10:02:23;99954.66;;;21.15;45.33
28683;BME280;15862;43.062;25.626;2022-12-07T10:04:50;99954.16;;;20.52;45.12
28683;BME280;15862;43.062;25.626;2022-12-07T10:07:15;99946.94;;;18.84;49.28
28683;BME280;15862;43.062;25.626;2022-12-07T10:09:40;99929.91;;;18.64;50.58
28683;BME280;15862;43.062;25.626;2022-12-07T10:12:09;99939.81;;;17.79;53.58
28683;BME280;15862;43.062;25.626;2022-12-07T10:14:40;99928.13;;;17.33;55.65
28683;BME280;15862;43.062;25.626;2022-12-07T10:17:37;99912.72;;;16.62;61.29
28683;BME280;15862;43.062;25.626;2022-12-07T10:25:20;99916.19;;;20.10;48.63
28683;BME280;15862;43.062;25.626;2022-12-07T10:28:15;99913.66;;;20.47;47.87
28683;BME280;15862;43.062;25.626;2022-12-07T10:30:57;99912.31;;;20.28;48.06
28683;BME280;15862;43.062;25.626;2022-12-07T10:33:38;99914.94;;;19.52;49.79
28683;BME280;15862;43.062;25.626;2022-12-07T10:36:17;99913.78;;;19.54;51.11
28683;BME280;15862;43.062;25.626;2022-12-07T10:41:25;99913.63;;;19.48;51.75
28683;BME280;15862;43.062;25.626;2022-12-07T10:43:56;99915.75;;;20.29;49.14
28683;BME280;15862;43.062;25.626;2022-12-07T10:47:01;99907.31;;;21.00;47.22
28683;BME280;15862;43.062;25.626;2022-12-07T11:00:18;99881.97;;;18.40;53.45
28683;BME280;15862;43.062;25.626;2022-12-07T11:16:38;99865.13;;;19.52;50.33
28683;BME280;15862;43.062;25.626;2022-12-07T11:22:17;99854.34;;;18.29;54.59
28683;BME280;15862;43.062;25.626;2022-12-07T11:30:28;99856.56;;;19.12;53.38
28683;BME280;15862;43.062;25.626;2022-12-07T11:35:57;99847.09;;;19.11;52.87
28683;BME280;15862;43.062;25.626;2022-12-07T11:38:41;99846.25;;;19.18;53.28
28683;BME280;15862;43.062;25.626;2022-12-07T11:41:08;99844.31;;;20.19;51.71
28683;BME280;15862;43.062;25.626;2022-12-07T11:43:56;99827.00;;;22.40;44.31
28683;BME280;15862;43.062;25.626;2022-12-07T11:46:28;99829.88;;;23.68;42.50
28683;BME280;15862;43.062;25.626;2022-12-07T11:49:10;99823.19;;;24.44;40.73
28683;BME280;15862;43.062;25.626;2022-12-07T11:51:38;99818.88;;;24.95;38.72
28683;BME280;15862;43.062;25.626;2022-12-07T11:54:23;99813.72;;;23.03;41.52
28683;BME280;15862;43.062;25.626;2022-12-07T11:56:51;99813.94;;;22.53;42.77
28683;BME280;15862;43.062;25.626;2022-12-07T11:59:32;99818.13;;;23.30;42.06
28683;BME280;15862;43.062;25.626;2022-12-07T12:02:22;99810.72;;;23.53;41.56
28683;BME280;15862;43.062;25.626;2022-12-07T12:05:02;99804.69;;;23.72;41.17
28683;BME280;15862;43.062;25.626;2022-12-07T12:07:33;99781.50;;;23.54;41.16
28683;BME280;15862;43.062;25.626;2022-12-07T12:10:14;99788.44;;;23.15;41.74
28683;BME280;15862;43.062;25.626;2022-12-07T12:13:18;99782.84;;;22.42;42.66
28683;BME280;15862;43.062;25.626;2022-12-07T12:21:08;99777.91;;;22.33;44.12
28683;BME280;15862;43.062;25.626;2022-12-07T12:26:23;99761.59;;;23.05;42.37
28683;BME280;15862;43.062;25.626;2022-12-07T12:29:01;99766.63;;;24.00;40.51
28683;BME280;15862;43.062;25.626;2022-12-07T12:33:57;99765.56;;;25.11;39.09
28683;BME280;15862;43.062;25.626;2022-12-07T12:39:08;99755.50;;;25.82;37.63
28683;BME280;15862;43.062;25.626;2022-12-07T12:46:54;99750.84;;;25.71;37.75
28683;BME280;15862;43.062;25.626;2022-12-07T12:54:37;99735.28;;;25.50;38.02
28683;BME280;15862;43.062;25.626;2022-12-07T12:57:30;99731.09;;;25.67;36.67
28683;BME280;15862;43.062;25.626;2022-12-07T12:59:59;99730.03;;;25.44;38.52
28683;BME280;15862;43.062;25.626;2022-12-07T13:15:42;99745.09;;;18.07;62.01
28683;BME280;15862;43.062;25.626;2022-12-07T13:20:55;99730.13;;;16.95;74.41
28683;BME280;15862;43.062;25.626;2022-12-07T13:23:24;99744.00;;;16.62;78.18
28683;BME280;15862;43.062;25.626;2022-12-07T13:26:01;99728.22;;;16.21;81.99
28683;BME280;15862;43.062;25.626;2022-12-07T13:28:38;99731.69;;;15.87;87.74
28683;BME280;15862;43.062;25.626;2022-12-07T13:33:47;99742.44;;;15.13;93.30
28683;BME280;15862;43.062;25.626;2022-12-07T13:36:33;99738.22;;;14.85;97.07
28683;BME280;15862;43.062;25.626;2022-12-07T13:39:17;99734.34;;;14.52;100.00
28683;BME280;15862;43.062;25.626;2022-12-07T13:41:44;99741.53;;;14.03;100.00
28683;BME280;15862;43.062;25.626;2022-12-07T13:44:17;99685.63;;;13.52;100.00
28683;BME280;15862;43.062;25.626;2022-12-07T13:46:57;99733.06;;;13.82;100.00
28683;BME280;15862;43.062;25.626;2022-12-07T13:49:32;99731.84;;;13.58;100.00
28683;BME280;15862;43.062;25.626;2022-12-07T13:52:15;99733.59;;;13.48;100.00
28683;BME280;15862;43.062;25.626;2022-12-07T13:54:54;99738.22;;;13.35;100.00
28683;BME280;15862;43.062;25.626;2022-12-07T13:57:20;99733.41;;;13.21;100.00
28683;BME280;15862;43.062;25.626;2022-12-07T13:59:47;99731.84;;;13.00;100.00
28683;BME280;15862;43.062;25.626;2022-12-07T14:02:33;99740.41;;;12.91;100.00
28683;BME280;15862;43.062;25.626;2022-12-07T14:08:33;99724.38;;;12.47;100.00
28683;BME280;15862;43.062;25.626;2022-12-07T14:13:23;99735.63;;;12.16;100.00
28683;BME280;15862;43.062;25.626;2022-12-07T14:15:52;99738.59;;;12.12;100.00
28683;BME280;15862;43.062;25.626;2022-12-07T14:21:06;99730.16;;;11.78;100.00
28683;BME280;15862;43.062;25.626;2022-12-07T14:23:32;99723.41;;;11.66;100.00
28683;BME280;15862;43.062;25.626;2022-12-07T14:26:11;99732.59;;;11.59;100.00
28683;BME280;15862;43.062;25.626;2022-12-07T14:28:37;99744.03;;;11.57;100.00
28683;BME280;15862;43.062;25.626;2022-12-07T14:31:17;99746.88;;;11.43;100.00
28683;BME280;15862;43.062;25.626;2022-12-07T14:33:43;99744.88;;;11.36;100.00
28683;BME280;15862;43.062;25.626;2022-12-07T14:36:10;99752.19;;;11.31;100.00
28683;BME280;15862;43.062;25.626;2022-12-07T14:38:36;99748.78;;;11.19;100.00
28683;BME280;15862;43.062;25.626;2022-12-07T14:41:02;99742.81;;;11.19;100.00
28683;BME280;15862;43.062;25.626;2022-12-07T14:43:47;99746.59;;;10.93;100.00
28683;BME280;15862;43.062;25.626;2022-12-07T14:46:13;99739.09;;;10.79;100.00
28683;BME280;15862;43.062;25.626;2022-12-07T14:48:39;99739.09;;;10.68;100.00
28683;BME280;15862;43.062;25.626;2022-12-07T14:51:04;99725.34;;;10.46;100.00
28683;BME280;15862;43.062;25.626;2022-12-07T14:53:35;99740.44;;;10.39;100.00
28683;BME280;15862;43.062;25.626;2022-12-07T14:56:03;99743.97;;;10.27;100.00